Hlavní strana
METAR-TAF:

METAR-TAF

Letiště :

Letiště Řím-Fiumicino

Řím-Fiumicino, Itálie

zeměpisná šířka: 41-48N, zeměpisná délka: 012-14E, výška: 2 m

Aktuální stav počasí

Zpráva byla vytvořena před 32 minutami, v 04:20 UTC
vítr z různých směrů 2 kt
Teplota 7°C
Vlhkost vzduchu 76%
Tlak 1018 hPa
Viditelnost 10 km a více
Žádná oblačnost pod 1500 m, nevyskytují se cumulonimby.

METAR: LIRF 170420Z VRB02KT CAVOK 07/03 Q1018 NOSIG

Čas: 05:52 (04:52 UTC)

Předpověď počasí

Zpráva byla vytvořena před 5 hodinami a 52 minutami, v 23:00 UTC
Předpověď platná od 17 v 00 UTC do 18 v 06 UTC
Severovýchodní vítr 12 kt
Viditelnost 10 km a více
Skoro jasno ve výšce 4000 ft

TAF: LIRF 162300Z 1700/1806 04012KT 9999 FEW040

Stav a předpovědi počasí z více než 4 000 letišť (zprávy METAR a TAF).

Červené a žluté tečky na mapě představují dostupné meteorologické stanice.

Když kurzor umístíte na tečku, zobrazí se název stanice.

Pak kliknutím zobrazíte stav a předpověď počasí.

Chcete-li změnit mapu, kliknutím na zelené tlačítko se znaménkem +mapu přiblížíte, kliknutím na zelené tlačítko se znaménkem – mapu oddálíte a kliknutím na zelené šipky přejdete na sousední mapy.


METAR-TAF: